South Fillmore, Illinois
Current Conditions -  °F | °C
As of 9:15 AM on Monday 24 Nov 2014 (Local Time) from K3LF Reporting Station
Overcast Overcast  
Wind Chill: 23°   Ceiling: 2300
Heat Index: 35°   Visibility: 10mi
Dew Point: 28°   Wind: 23mph
Humidity: 76%   Direction: 260°W
Pressure: 29.58"   Gusts: 36mph
Location:  39.1009°N, 89.3067°W
Report Text: K3LF 241515Z AUTO 26020G31KT 10SM OVC023 02/M02 A2958 RMK AO2 T00181021
Loading
Personal Weather Stations






























Interactive Weather Map New forecast layout! Learn more

10-Day Weather Forecast

Advertisements
Track Severe Weather on mobile